sensor_id;sensor_type;location;lat;lon;timestamp;temperature;humidity
68701;DHT22;55682;51.114;5.882;2023-08-31T00:02:14;14.23;80.72
68701;DHT22;55682;51.114;5.882;2023-08-31T00:04:39;14.21;80.82
68701;DHT22;55682;51.114;5.882;2023-08-31T00:07:05;14.19;80.91
68701;DHT22;55682;51.114;5.882;2023-08-31T00:09:32;14.20;80.86
68701;DHT22;55682;51.114;5.882;2023-08-31T00:12:01;14.18;80.88
68701;DHT22;55682;51.114;5.882;2023-08-31T00:14:27;14.13;81.00
68701;DHT22;55682;51.114;5.882;2023-08-31T00:16:52;14.13;81.01
68701;DHT22;55682;51.114;5.882;2023-08-31T00:19:18;14.09;81.03
68701;DHT22;55682;51.114;5.882;2023-08-31T00:21:44;14.08;81.08
68701;DHT22;55682;51.114;5.882;2023-08-31T00:24:10;14.07;81.04
68701;DHT22;55682;51.114;5.882;2023-08-31T00:26:37;14.04;81.09
68701;DHT22;55682;51.114;5.882;2023-08-31T00:29:11;13.99;81.20
68701;DHT22;55682;51.114;5.882;2023-08-31T00:31:37;13.96;81.14
68701;DHT22;55682;51.114;5.882;2023-08-31T00:34:03;13.93;81.25
68701;DHT22;55682;51.114;5.882;2023-08-31T00:36:30;13.92;81.18
68701;DHT22;55682;51.114;5.882;2023-08-31T00:38:57;13.93;81.08
68701;DHT22;55682;51.114;5.882;2023-08-31T00:41:23;13.86;81.26
68701;DHT22;55682;51.114;5.882;2023-08-31T00:43:50;13.86;81.30
68701;DHT22;55682;51.114;5.882;2023-08-31T00:46:15;13.83;81.27
68701;DHT22;55682;51.114;5.882;2023-08-31T00:48:41;13.77;81.53
68701;DHT22;55682;51.114;5.882;2023-08-31T00:51:07;13.74;81.61
68701;DHT22;55682;51.114;5.882;2023-08-31T00:53:35;13.75;81.56
68701;DHT22;55682;51.114;5.882;2023-08-31T00:56:01;13.77;81.47
68701;DHT22;55682;51.114;5.882;2023-08-31T00:58:27;13.67;81.79
68701;DHT22;55682;51.114;5.882;2023-08-31T01:07:40;13.65;81.84
68701;DHT22;55682;51.114;5.882;2023-08-31T01:12:51;13.54;82.35
68701;DHT22;55682;51.114;5.882;2023-08-31T01:15:18;13.48;82.51
68701;DHT22;55682;51.114;5.882;2023-08-31T01:17:48;13.48;82.58
68701;DHT22;55682;51.114;5.882;2023-08-31T01:20:19;13.45;82.68
68701;DHT22;55682;51.114;5.882;2023-08-31T01:23:16;13.45;82.77
68701;DHT22;55682;51.114;5.882;2023-08-31T01:25:44;13.40;82.84
68701;DHT22;55682;51.114;5.882;2023-08-31T01:28:11;13.37;82.98
68701;DHT22;55682;51.114;5.882;2023-08-31T01:30:37;13.36;83.00
68701;DHT22;55682;51.114;5.882;2023-08-31T01:33:03;13.32;83.06
68701;DHT22;55682;51.114;5.882;2023-08-31T01:35:54;13.31;83.19
68701;DHT22;55682;51.114;5.882;2023-08-31T01:38:28;13.34;83.10
68701;DHT22;55682;51.114;5.882;2023-08-31T01:41:03;13.23;83.36
68701;DHT22;55682;51.114;5.882;2023-08-31T01:43:31;13.23;83.58
68701;DHT22;55682;51.114;5.882;2023-08-31T01:46:00;13.22;83.58
68701;DHT22;55682;51.114;5.882;2023-08-31T01:48:25;13.20;83.77
68701;DHT22;55682;51.114;5.882;2023-08-31T01:50:51;13.21;83.72
68701;DHT22;55682;51.114;5.882;2023-08-31T01:53:17;13.18;83.86
68701;DHT22;55682;51.114;5.882;2023-08-31T01:55:43;13.17;83.83
68701;DHT22;55682;51.114;5.882;2023-08-31T01:58:09;13.16;83.84
68701;DHT22;55682;51.114;5.882;2023-08-31T02:00:35;13.17;83.71
68701;DHT22;55682;51.114;5.882;2023-08-31T02:03:04;13.12;83.76
68701;DHT22;55682;51.114;5.882;2023-08-31T02:05:30;13.10;83.95
68701;DHT22;55682;51.114;5.882;2023-08-31T02:07:55;13.07;83.97
68701;DHT22;55682;51.114;5.882;2023-08-31T02:10:22;13.05;83.92
68701;DHT22;55682;51.114;5.882;2023-08-31T02:12:47;13.05;84.13
68701;DHT22;55682;51.114;5.882;2023-08-31T02:15:13;13.06;84.13
68701;DHT22;55682;51.114;5.882;2023-08-31T02:17:39;13.02;84.41
68701;DHT22;55682;51.114;5.882;2023-08-31T02:20:06;12.97;84.55
68701;DHT22;55682;51.114;5.882;2023-08-31T02:22:34;12.95;84.59
68701;DHT22;55682;51.114;5.882;2023-08-31T02:25:00;12.95;84.72
68701;DHT22;55682;51.114;5.882;2023-08-31T02:27:29;12.97;84.67
68701;DHT22;55682;51.114;5.882;2023-08-31T02:29:55;12.95;84.80
68701;DHT22;55682;51.114;5.882;2023-08-31T02:32:20;12.94;84.82
68701;DHT22;55682;51.114;5.882;2023-08-31T02:34:46;12.94;84.91
68701;DHT22;55682;51.114;5.882;2023-08-31T02:37:12;12.90;85.04
68701;DHT22;55682;51.114;5.882;2023-08-31T02:39:37;12.90;85.16
68701;DHT22;55682;51.114;5.882;2023-08-31T02:42:03;12.87;85.30
68701;DHT22;55682;51.114;5.882;2023-08-31T02:44:31;12.87;85.35
68701;DHT22;55682;51.114;5.882;2023-08-31T02:46:57;12.86;85.24
68701;DHT22;55682;51.114;5.882;2023-08-31T02:49:22;12.81;85.37
68701;DHT22;55682;51.114;5.882;2023-08-31T02:51:48;12.81;85.39
68701;DHT22;55682;51.114;5.882;2023-08-31T02:54:15;12.78;85.58
68701;DHT22;55682;51.114;5.882;2023-08-31T02:56:41;12.80;85.58
68701;DHT22;55682;51.114;5.882;2023-08-31T02:59:07;12.81;85.78
68701;DHT22;55682;51.114;5.882;2023-08-31T03:01:33;12.81;85.97
68701;DHT22;55682;51.114;5.882;2023-08-31T03:03:59;12.84;85.93
68701;DHT22;55682;51.114;5.882;2023-08-31T03:06:26;12.85;85.93
68701;DHT22;55682;51.114;5.882;2023-08-31T03:08:51;12.84;86.12
68701;DHT22;55682;51.114;5.882;2023-08-31T03:11:17;12.81;86.19
68701;DHT22;55682;51.114;5.882;2023-08-31T03:13:43;12.81;86.13
68701;DHT22;55682;51.114;5.882;2023-08-31T03:16:10;12.79;86.22
68701;DHT22;55682;51.114;5.882;2023-08-31T03:18:36;12.81;86.12
68701;DHT22;55682;51.114;5.882;2023-08-31T03:21:02;12.80;86.19
68701;DHT22;55682;51.114;5.882;2023-08-31T03:23:29;12.77;86.26
68701;DHT22;55682;51.114;5.882;2023-08-31T03:25:56;12.78;86.19
68701;DHT22;55682;51.114;5.882;2023-08-31T03:28:21;12.76;86.28
68701;DHT22;55682;51.114;5.882;2023-08-31T03:30:57;12.82;86.31
68701;DHT22;55682;51.114;5.882;2023-08-31T03:33:23;12.71;86.70
68701;DHT22;55682;51.114;5.882;2023-08-31T03:35:49;12.73;86.70
68701;DHT22;55682;51.114;5.882;2023-08-31T03:38:14;12.76;86.69
68701;DHT22;55682;51.114;5.882;2023-08-31T03:40:40;12.74;86.78
68701;DHT22;55682;51.114;5.882;2023-08-31T03:43:06;12.71;86.82
68701;DHT22;55682;51.114;5.882;2023-08-31T03:45:32;12.69;86.85
68701;DHT22;55682;51.114;5.882;2023-08-31T03:47:58;12.67;86.89
68701;DHT22;55682;51.114;5.882;2023-08-31T03:50:24;12.66;86.99
68701;DHT22;55682;51.114;5.882;2023-08-31T03:52:50;12.64;87.13
68701;DHT22;55682;51.114;5.882;2023-08-31T03:55:15;12.65;87.22
68701;DHT22;55682;51.114;5.882;2023-08-31T03:57:41;12.64;87.34
68701;DHT22;55682;51.114;5.882;2023-08-31T04:00:13;12.70;87.10
68701;DHT22;55682;51.114;5.882;2023-08-31T04:02:43;12.63;87.43
68701;DHT22;55682;51.114;5.882;2023-08-31T04:05:13;12.63;87.48
68701;DHT22;55682;51.114;5.882;2023-08-31T04:07:42;12.62;87.63
68701;DHT22;55682;51.114;5.882;2023-08-31T04:10:08;12.64;87.44
68701;DHT22;55682;51.114;5.882;2023-08-31T04:12:34;12.61;87.65
68701;DHT22;55682;51.114;5.882;2023-08-31T04:15:00;12.57;87.77
68701;DHT22;55682;51.114;5.882;2023-08-31T04:17:25;12.59;87.94
68701;DHT22;55682;51.114;5.882;2023-08-31T04:19:51;12.58;87.94
68701;DHT22;55682;51.114;5.882;2023-08-31T04:22:17;12.62;88.00
68701;DHT22;55682;51.114;5.882;2023-08-31T04:24:43;12.61;88.16
68701;DHT22;55682;51.114;5.882;2023-08-31T04:27:09;12.62;88.23
68701;DHT22;55682;51.114;5.882;2023-08-31T04:29:35;12.59;88.32
68701;DHT22;55682;51.114;5.882;2023-08-31T04:32:01;12.61;88.12
68701;DHT22;55682;51.114;5.882;2023-08-31T04:34:27;12.59;88.22
68701;DHT22;55682;51.114;5.882;2023-08-31T04:36:52;12.57;88.41
68701;DHT22;55682;51.114;5.882;2023-08-31T04:39:18;12.58;88.31
68701;DHT22;55682;51.114;5.882;2023-08-31T04:41:44;12.61;88.18
68701;DHT22;55682;51.114;5.882;2023-08-31T04:44:10;12.55;88.39
68701;DHT22;55682;51.114;5.882;2023-08-31T04:46:37;12.56;88.47
68701;DHT22;55682;51.114;5.882;2023-08-31T04:49:03;12.56;88.67
68701;DHT22;55682;51.114;5.882;2023-08-31T04:51:34;12.56;88.55
68701;DHT22;55682;51.114;5.882;2023-08-31T04:54:00;12.59;88.54
68701;DHT22;55682;51.114;5.882;2023-08-31T04:56:31;12.59;88.76
68701;DHT22;55682;51.114;5.882;2023-08-31T04:58:58;12.66;88.38
68701;DHT22;55682;51.114;5.882;2023-08-31T05:01:23;12.63;88.60
68701;DHT22;55682;51.114;5.882;2023-08-31T05:03:49;12.67;88.51
68701;DHT22;55682;51.114;5.882;2023-08-31T05:06:14;12.89;88.44
68701;DHT22;55682;51.114;5.882;2023-08-31T05:08:40;13.30;87.88
68701;DHT22;55682;51.114;5.882;2023-08-31T05:11:06;13.74;86.33
68701;DHT22;55682;51.114;5.882;2023-08-31T05:13:31;14.18;84.87
68701;DHT22;55682;51.114;5.882;2023-08-31T05:15:57;14.64;83.31
68701;DHT22;55682;51.114;5.882;2023-08-31T05:18:23;15.09;81.43
68701;DHT22;55682;51.114;5.882;2023-08-31T05:20:48;15.51;79.51
68701;DHT22;55682;51.114;5.882;2023-08-31T05:23:15;15.90;77.56
68701;DHT22;55682;51.114;5.882;2023-08-31T05:25:44;16.36;75.16
68701;DHT22;55682;51.114;5.882;2023-08-31T05:28:09;16.70;73.49
68701;DHT22;55682;51.114;5.882;2023-08-31T05:30:35;16.98;71.90
68701;DHT22;55682;51.114;5.882;2023-08-31T05:33:01;17.29;71.16
68701;DHT22;55682;51.114;5.882;2023-08-31T05:35:27;17.77;69.54
68701;DHT22;55682;51.114;5.882;2023-08-31T05:37:52;18.17;67.54
68701;DHT22;55682;51.114;5.882;2023-08-31T05:40:18;18.55;66.55
68701;DHT22;55682;51.114;5.882;2023-08-31T05:42:44;19.00;65.07
68701;DHT22;55682;51.114;5.882;2023-08-31T05:45:10;19.37;63.07
68701;DHT22;55682;51.114;5.882;2023-08-31T05:47:36;19.69;62.09
68701;DHT22;55682;51.114;5.882;2023-08-31T05:50:02;20.03;60.89
68701;DHT22;55682;51.114;5.882;2023-08-31T05:52:28;20.37;59.38
68701;DHT22;55682;51.114;5.882;2023-08-31T05:54:54;20.60;58.49
68701;DHT22;55682;51.114;5.882;2023-08-31T05:57:20;20.70;58.43
68701;DHT22;55682;51.114;5.882;2023-08-31T05:59:47;20.28;57.63
68701;DHT22;55682;51.114;5.882;2023-08-31T06:02:13;20.11;60.34
68701;DHT22;55682;51.114;5.882;2023-08-31T06:04:38;20.88;59.23
68701;DHT22;55682;51.114;5.882;2023-08-31T06:07:04;21.63;56.01
68701;DHT22;55682;51.114;5.882;2023-08-31T06:09:30;22.17;54.85
68701;DHT22;55682;51.114;5.882;2023-08-31T06:11:55;22.61;52.88
68701;DHT22;55682;51.114;5.882;2023-08-31T06:14:21;22.55;51.95
68701;DHT22;55682;51.114;5.882;2023-08-31T06:16:47;21.81;52.56
68701;DHT22;55682;51.114;5.882;2023-08-31T06:19:12;20.76;56.61
68701;DHT22;55682;51.114;5.882;2023-08-31T06:21:41;20.78;57.47
68701;DHT22;55682;51.114;5.882;2023-08-31T06:24:07;21.15;57.26
68701;DHT22;55682;51.114;5.882;2023-08-31T06:26:35;21.80;55.49
68701;DHT22;55682;51.114;5.882;2023-08-31T06:29:01;22.29;54.07
68701;DHT22;55682;51.114;5.882;2023-08-31T06:31:29;22.88;52.13
68701;DHT22;55682;51.114;5.882;2023-08-31T06:33:54;23.45;50.95
68701;DHT22;55682;51.114;5.882;2023-08-31T06:36:20;24.00;49.79
68701;DHT22;55682;51.114;5.882;2023-08-31T06:38:46;24.35;47.92
68701;DHT22;55682;51.114;5.882;2023-08-31T06:41:12;24.45;48.25
68701;DHT22;55682;51.114;5.882;2023-08-31T06:43:37;24.75;46.67
68701;DHT22;55682;51.114;5.882;2023-08-31T06:46:03;24.79;46.60
68701;DHT22;55682;51.114;5.882;2023-08-31T06:48:29;24.80;46.87
68701;DHT22;55682;51.114;5.882;2023-08-31T06:50:54;25.31;46.22
68701;DHT22;55682;51.114;5.882;2023-08-31T06:53:21;25.45;45.32
68701;DHT22;55682;51.114;5.882;2023-08-31T06:55:47;25.72;44.62
68701;DHT22;55682;51.114;5.882;2023-08-31T06:58:13;25.89;44.28
68701;DHT22;55682;51.114;5.882;2023-08-31T07:00:39;26.07;43.46
68701;DHT22;55682;51.114;5.882;2023-08-31T07:03:05;26.31;43.45
68701;DHT22;55682;51.114;5.882;2023-08-31T07:05:34;26.60;42.71
68701;DHT22;55682;51.114;5.882;2023-08-31T07:08:03;27.04;41.86
68701;DHT22;55682;51.114;5.882;2023-08-31T07:10:28;27.49;40.87
68701;DHT22;55682;51.114;5.882;2023-08-31T07:12:54;27.31;41.26
68701;DHT22;55682;51.114;5.882;2023-08-31T07:15:19;26.81;42.26
68701;DHT22;55682;51.114;5.882;2023-08-31T07:17:45;26.78;42.04
68701;DHT22;55682;51.114;5.882;2023-08-31T07:20:12;26.85;42.41
68701;DHT22;55682;51.114;5.882;2023-08-31T07:22:37;26.67;42.10
68701;DHT22;55682;51.114;5.882;2023-08-31T07:25:04;26.17;43.08
68701;DHT22;55682;51.114;5.882;2023-08-31T07:27:31;25.35;44.37
68701;DHT22;55682;51.114;5.882;2023-08-31T07:29:57;24.36;47.00
68701;DHT22;55682;51.114;5.882;2023-08-31T07:32:22;23.61;49.34
68701;DHT22;55682;51.114;5.882;2023-08-31T07:34:48;22.96;50.70
68701;DHT22;55682;51.114;5.882;2023-08-31T07:37:14;22.37;53.00
68701;DHT22;55682;51.114;5.882;2023-08-31T07:39:39;22.06;54.04
68701;DHT22;55682;51.114;5.882;2023-08-31T07:42:06;21.67;55.13
68701;DHT22;55682;51.114;5.882;2023-08-31T07:44:31;21.36;56.21
68701;DHT22;55682;51.114;5.882;2023-08-31T07:46:57;21.15;56.79
68701;DHT22;55682;51.114;5.882;2023-08-31T07:49:23;20.93;57.70
68701;DHT22;55682;51.114;5.882;2023-08-31T07:51:49;20.92;58.36
68701;DHT22;55682;51.114;5.882;2023-08-31T07:54:21;21.18;58.13
68701;DHT22;55682;51.114;5.882;2023-08-31T07:56:47;21.33;57.42
68701;DHT22;55682;51.114;5.882;2023-08-31T07:59:12;21.43;57.36
68701;DHT22;55682;51.114;5.882;2023-08-31T08:01:38;21.55;57.15
68701;DHT22;55682;51.114;5.882;2023-08-31T08:04:04;21.54;56.55
68701;DHT22;55682;51.114;5.882;2023-08-31T08:06:30;21.74;56.72
68701;DHT22;55682;51.114;5.882;2023-08-31T08:08:55;22.13;55.14
68701;DHT22;55682;51.114;5.882;2023-08-31T08:11:22;22.67;54.36
68701;DHT22;55682;51.114;5.882;2023-08-31T08:13:48;23.47;51.98
68701;DHT22;55682;51.114;5.882;2023-08-31T08:16:14;23.56;51.62
68701;DHT22;55682;51.114;5.882;2023-08-31T08:18:40;24.02;50.35
68701;DHT22;55682;51.114;5.882;2023-08-31T08:21:06;24.61;48.20
68701;DHT22;55682;51.114;5.882;2023-08-31T08:23:31;24.68;47.27
68701;DHT22;55682;51.114;5.882;2023-08-31T08:25:57;24.60;47.57
68701;DHT22;55682;51.114;5.882;2023-08-31T08:28:26;25.67;45.86
68701;DHT22;55682;51.114;5.882;2023-08-31T08:30:52;26.92;43.89
68701;DHT22;55682;51.114;5.882;2023-08-31T08:33:18;27.93;41.04
68701;DHT22;55682;51.114;5.882;2023-08-31T08:35:43;28.71;39.72
68701;DHT22;55682;51.114;5.882;2023-08-31T08:38:09;29.49;37.16
68701;DHT22;55682;51.114;5.882;2023-08-31T08:40:35;29.78;37.26
68701;DHT22;55682;51.114;5.882;2023-08-31T08:43:01;30.09;36.28
68701;DHT22;55682;51.114;5.882;2023-08-31T08:45:36;30.04;35.86
68701;DHT22;55682;51.114;5.882;2023-08-31T08:48:05;30.11;35.57
68701;DHT22;55682;51.114;5.882;2023-08-31T08:50:33;30.18;35.14
68701;DHT22;55682;51.114;5.882;2023-08-31T08:53:03;30.48;34.70
68701;DHT22;55682;51.114;5.882;2023-08-31T08:55:29;30.60;33.89
68701;DHT22;55682;51.114;5.882;2023-08-31T08:57:55;30.83;34.11
68701;DHT22;55682;51.114;5.882;2023-08-31T09:00:21;30.83;33.90
68701;DHT22;55682;51.114;5.882;2023-08-31T09:02:47;31.10;33.22
68701;DHT22;55682;51.114;5.882;2023-08-31T09:05:12;30.94;32.83
68701;DHT22;55682;51.114;5.882;2023-08-31T09:07:38;30.72;32.74
68701;DHT22;55682;51.114;5.882;2023-08-31T09:10:30;30.28;33.61
68701;DHT22;55682;51.114;5.882;2023-08-31T09:13:00;30.12;34.92
68701;DHT22;55682;51.114;5.882;2023-08-31T09:15:25;30.62;34.01
68701;DHT22;55682;51.114;5.882;2023-08-31T09:17:51;31.11;33.73
68701;DHT22;55682;51.114;5.882;2023-08-31T09:20:17;31.76;32.17
68701;DHT22;55682;51.114;5.882;2023-08-31T09:22:43;31.50;30.90
68701;DHT22;55682;51.114;5.882;2023-08-31T09:25:12;30.85;32.93
68701;DHT22;55682;51.114;5.882;2023-08-31T09:27:38;30.96;33.38
68701;DHT22;55682;51.114;5.882;2023-08-31T09:30:06;31.52;32.94
68701;DHT22;55682;51.114;5.882;2023-08-31T09:32:32;31.57;31.54
68701;DHT22;55682;51.114;5.882;2023-08-31T09:34:58;31.29;32.15
68701;DHT22;55682;51.114;5.882;2023-08-31T09:37:28;30.57;32.99
68701;DHT22;55682;51.114;5.882;2023-08-31T09:39:53;30.55;34.08
68701;DHT22;55682;51.114;5.882;2023-08-31T09:42:19;29.95;34.51
68701;DHT22;55682;51.114;5.882;2023-08-31T09:44:49;29.39;36.02
68701;DHT22;55682;51.114;5.882;2023-08-31T09:47:17;29.53;35.69
68701;DHT22;55682;51.114;5.882;2023-08-31T09:49:44;30.06;35.45
68701;DHT22;55682;51.114;5.882;2023-08-31T09:52:11;30.24;33.36
68701;DHT22;55682;51.114;5.882;2023-08-31T09:54:39;29.34;34.62
68701;DHT22;55682;51.114;5.882;2023-08-31T09:57:05;28.88;35.48
68701;DHT22;55682;51.114;5.882;2023-08-31T09:59:32;29.06;35.50
68701;DHT22;55682;51.114;5.882;2023-08-31T10:01:59;29.26;35.51
68701;DHT22;55682;51.114;5.882;2023-08-31T10:04:29;29.85;34.78
68701;DHT22;55682;51.114;5.882;2023-08-31T10:06:56;29.56;33.99
68701;DHT22;55682;51.114;5.882;2023-08-31T10:09:22;29.23;35.81
68701;DHT22;55682;51.114;5.882;2023-08-31T10:11:49;29.90;34.47
68701;DHT22;55682;51.114;5.882;2023-08-31T10:14:15;29.72;34.26
68701;DHT22;55682;51.114;5.882;2023-08-31T10:16:44;29.22;36.23
68701;DHT22;55682;51.114;5.882;2023-08-31T10:19:09;29.70;36.36
68701;DHT22;55682;51.114;5.882;2023-08-31T10:21:35;30.32;32.47
68701;DHT22;55682;51.114;5.882;2023-08-31T10:24:02;30.56;32.76
68701;DHT22;55682;51.114;5.882;2023-08-31T10:26:31;31.05;32.17
68701;DHT22;55682;51.114;5.882;2023-08-31T10:28:58;31.66;31.09
68701;DHT22;55682;51.114;5.882;2023-08-31T10:31:28;32.18;30.32
68701;DHT22;55682;51.114;5.882;2023-08-31T10:36:40;32.79;29.04
68701;DHT22;55682;51.114;5.882;2023-08-31T10:41:38;30.03;31.77
68701;DHT22;55682;51.114;5.882;2023-08-31T10:46:44;27.65;37.61
68701;DHT22;55682;51.114;5.882;2023-08-31T10:51:38;26.76;39.24
68701;DHT22;55682;51.114;5.882;2023-08-31T10:57:02;26.68;40.33
68701;DHT22;55682;51.114;5.882;2023-08-31T11:05:09;27.97;36.56
68701;DHT22;55682;51.114;5.882;2023-08-31T11:07:35;28.37;35.75
68701;DHT22;55682;51.114;5.882;2023-08-31T11:10:14;28.32;36.60
68701;DHT22;55682;51.114;5.882;2023-08-31T11:12:43;28.46;34.60
68701;DHT22;55682;51.114;5.882;2023-08-31T11:15:12;27.71;35.50
68701;DHT22;55682;51.114;5.882;2023-08-31T11:17:40;27.69;37.06
68701;DHT22;55682;51.114;5.882;2023-08-31T11:20:07;28.28;35.75
68701;DHT22;55682;51.114;5.882;2023-08-31T11:22:39;28.18;36.27
68701;DHT22;55682;51.114;5.882;2023-08-31T11:25:06;28.02;36.74
68701;DHT22;55682;51.114;5.882;2023-08-31T11:27:32;27.63;37.10
68701;DHT22;55682;51.114;5.882;2023-08-31T11:29:57;27.09;38.17
68701;DHT22;55682;51.114;5.882;2023-08-31T11:32:23;26.69;39.14
68701;DHT22;55682;51.114;5.882;2023-08-31T11:34:50;26.78;39.70
68701;DHT22;55682;51.114;5.882;2023-08-31T11:37:16;27.49;38.34
68701;DHT22;55682;51.114;5.882;2023-08-31T11:39:49;28.18;37.14
68701;DHT22;55682;51.114;5.882;2023-08-31T11:42:16;28.43;36.36
68701;DHT22;55682;51.114;5.882;2023-08-31T11:44:45;27.97;36.87
68701;DHT22;55682;51.114;5.882;2023-08-31T11:47:13;27.58;37.44
68701;DHT22;55682;51.114;5.882;2023-08-31T11:49:40;28.01;37.69
68701;DHT22;55682;51.114;5.882;2023-08-31T11:52:08;28.98;36.44
68701;DHT22;55682;51.114;5.882;2023-08-31T11:54:37;29.66;33.99
68701;DHT22;55682;51.114;5.882;2023-08-31T11:57:07;29.74;33.99
68701;DHT22;55682;51.114;5.882;2023-08-31T11:59:35;29.89;33.59
68701;DHT22;55682;51.114;5.882;2023-08-31T12:02:02;30.39;32.67
68701;DHT22;55682;51.114;5.882;2023-08-31T12:04:30;30.62;31.77
68701;DHT22;55682;51.114;5.882;2023-08-31T12:07:02;30.95;32.48
68701;DHT22;55682;51.114;5.882;2023-08-31T12:09:32;31.48;31.38
68701;DHT22;55682;51.114;5.882;2023-08-31T12:11:58;31.42;30.42
68701;DHT22;55682;51.114;5.882;2023-08-31T12:14:27;30.54;30.93
68701;DHT22;55682;51.114;5.882;2023-08-31T12:17:00;30.05;32.39
68701;DHT22;55682;51.114;5.882;2023-08-31T12:19:27;30.18;31.19
68701;DHT22;55682;51.114;5.882;2023-08-31T12:21:56;29.80;31.73
68701;DHT22;55682;51.114;5.882;2023-08-31T12:24:22;29.58;32.35
68701;DHT22;55682;51.114;5.882;2023-08-31T12:26:49;29.22;32.25
68701;DHT22;55682;51.114;5.882;2023-08-31T12:29:15;28.87;33.49
68701;DHT22;55682;51.114;5.882;2023-08-31T12:31:41;28.73;34.08
68701;DHT22;55682;51.114;5.882;2023-08-31T12:34:06;28.59;34.10
68701;DHT22;55682;51.114;5.882;2023-08-31T12:36:33;28.40;33.84
68701;DHT22;55682;51.114;5.882;2023-08-31T12:38:59;28.24;33.92
68701;DHT22;55682;51.114;5.882;2023-08-31T12:41:27;28.03;34.27
68701;DHT22;55682;51.114;5.882;2023-08-31T12:43:54;27.71;35.25
68701;DHT22;55682;51.114;5.882;2023-08-31T12:46:19;27.52;35.85
68701;DHT22;55682;51.114;5.882;2023-08-31T12:48:45;27.38;35.70
68701;DHT22;55682;51.114;5.882;2023-08-31T12:51:10;26.99;36.95
68701;DHT22;55682;51.114;5.882;2023-08-31T12:53:39;26.91;37.17
68701;DHT22;55682;51.114;5.882;2023-08-31T12:56:05;26.84;36.11
68701;DHT22;55682;51.114;5.882;2023-08-31T12:58:32;26.84;35.80
68701;DHT22;55682;51.114;5.882;2023-08-31T13:01:00;26.73;36.41
68701;DHT22;55682;51.114;5.882;2023-08-31T13:03:26;26.45;37.08
68701;DHT22;55682;51.114;5.882;2023-08-31T13:05:53;26.27;37.80
68701;DHT22;55682;51.114;5.882;2023-08-31T13:08:19;26.32;36.72
68701;DHT22;55682;51.114;5.882;2023-08-31T13:10:51;26.41;36.92
68701;DHT22;55682;51.114;5.882;2023-08-31T13:13:17;26.42;37.85
68701;DHT22;55682;51.114;5.882;2023-08-31T13:15:46;26.65;38.33
68701;DHT22;55682;51.114;5.882;2023-08-31T13:18:11;26.63;38.18
68701;DHT22;55682;51.114;5.882;2023-08-31T13:20:37;26.34;38.54
68701;DHT22;55682;51.114;5.882;2023-08-31T13:23:03;26.23;39.07
68701;DHT22;55682;51.114;5.882;2023-08-31T13:25:28;26.06;39.17
68701;DHT22;55682;51.114;5.882;2023-08-31T13:27:54;25.83;39.87
68701;DHT22;55682;51.114;5.882;2023-08-31T13:30:20;25.77;40.59
68701;DHT22;55682;51.114;5.882;2023-08-31T13:32:45;25.89;40.92
68701;DHT22;55682;51.114;5.882;2023-08-31T13:35:11;25.89;40.58
68701;DHT22;55682;51.114;5.882;2023-08-31T13:37:37;25.73;41.10
68701;DHT22;55682;51.114;5.882;2023-08-31T13:40:02;25.66;41.05
68701;DHT22;55682;51.114;5.882;2023-08-31T13:42:36;25.64;41.13
68701;DHT22;55682;51.114;5.882;2023-08-31T13:45:07;25.68;40.83
68701;DHT22;55682;51.114;5.882;2023-08-31T13:47:33;25.57;41.33
68701;DHT22;55682;51.114;5.882;2023-08-31T13:49:59;25.48;41.89
68701;DHT22;55682;51.114;5.882;2023-08-31T13:52:25;25.63;41.13
68701;DHT22;55682;51.114;5.882;2023-08-31T13:54:52;25.33;41.70
68701;DHT22;55682;51.114;5.882;2023-08-31T13:57:18;25.09;42.33
68701;DHT22;55682;51.114;5.882;2023-08-31T13:59:44;25.23;42.61
68701;DHT22;55682;51.114;5.882;2023-08-31T14:02:10;25.34;42.29
68701;DHT22;55682;51.114;5.882;2023-08-31T14:04:35;25.30;42.36
68701;DHT22;55682;51.114;5.882;2023-08-31T14:07:01;25.28;41.71
68701;DHT22;55682;51.114;5.882;2023-08-31T14:09:28;25.46;41.19
68701;DHT22;55682;51.114;5.882;2023-08-31T14:11:53;25.42;41.90
68701;DHT22;55682;51.114;5.882;2023-08-31T14:14:22;25.60;41.60
68701;DHT22;55682;51.114;5.882;2023-08-31T14:16:49;25.63;40.71
68701;DHT22;55682;51.114;5.882;2023-08-31T14:19:16;25.52;40.37
68701;DHT22;55682;51.114;5.882;2023-08-31T14:21:41;25.42;40.66
68701;DHT22;55682;51.114;5.882;2023-08-31T14:24:07;25.27;40.38
68701;DHT22;55682;51.114;5.882;2023-08-31T14:26:33;25.10;41.00
68701;DHT22;55682;51.114;5.882;2023-08-31T14:28:59;25.18;40.65
68701;DHT22;55682;51.114;5.882;2023-08-31T14:31:25;25.40;40.26
68701;DHT22;55682;51.114;5.882;2023-08-31T14:33:50;25.61;40.12
68701;DHT22;55682;51.114;5.882;2023-08-31T14:36:17;25.77;39.75
68701;DHT22;55682;51.114;5.882;2023-08-31T14:38:43;25.71;39.17
68701;DHT22;55682;51.114;5.882;2023-08-31T14:41:11;25.73;39.30
68701;DHT22;55682;51.114;5.882;2023-08-31T14:43:36;25.64;38.62
68701;DHT22;55682;51.114;5.882;2023-08-31T14:46:02;25.40;38.19
68701;DHT22;55682;51.114;5.882;2023-08-31T14:48:30;25.14;39.37
68701;DHT22;55682;51.114;5.882;2023-08-31T14:50:55;25.02;40.38
68701;DHT22;55682;51.114;5.882;2023-08-31T14:53:24;25.04;40.39
68701;DHT22;55682;51.114;5.882;2023-08-31T14:55:51;25.03;40.16
68701;DHT22;55682;51.114;5.882;2023-08-31T14:58:17;24.98;40.48
68701;DHT22;55682;51.114;5.882;2023-08-31T15:00:43;24.95;40.55
68701;DHT22;55682;51.114;5.882;2023-08-31T15:03:09;24.83;40.90
68701;DHT22;55682;51.114;5.882;2023-08-31T15:05:35;24.71;41.39
68701;DHT22;55682;51.114;5.882;2023-08-31T15:08:03;24.55;42.14
68701;DHT22;55682;51.114;5.882;2023-08-31T15:10:29;24.44;42.83
68701;DHT22;55682;51.114;5.882;2023-08-31T15:12:55;24.33;43.11
68701;DHT22;55682;51.114;5.882;2023-08-31T15:15:27;24.31;43.34
68701;DHT22;55682;51.114;5.882;2023-08-31T15:17:53;24.36;43.41
68701;DHT22;55682;51.114;5.882;2023-08-31T15:20:19;24.47;43.95
68701;DHT22;55682;51.114;5.882;2023-08-31T15:22:44;24.53;44.29
68701;DHT22;55682;51.114;5.882;2023-08-31T15:25:10;24.58;44.37
68701;DHT22;55682;51.114;5.882;2023-08-31T15:27:36;24.77;43.90
68701;DHT22;55682;51.114;5.882;2023-08-31T15:30:03;24.79;43.53
68701;DHT22;55682;51.114;5.882;2023-08-31T15:32:29;24.51;43.55
68701;DHT22;55682;51.114;5.882;2023-08-31T15:34:54;24.29;44.02
68701;DHT22;55682;51.114;5.882;2023-08-31T15:37:20;24.12;44.13
68701;DHT22;55682;51.114;5.882;2023-08-31T15:39:46;24.10;44.05
68701;DHT22;55682;51.114;5.882;2023-08-31T15:42:11;23.87;44.35
68701;DHT22;55682;51.114;5.882;2023-08-31T15:44:42;23.74;44.45
68701;DHT22;55682;51.114;5.882;2023-08-31T15:47:08;23.69;44.32
68701;DHT22;55682;51.114;5.882;2023-08-31T15:49:33;23.53;45.01
68701;DHT22;55682;51.114;5.882;2023-08-31T15:51:59;23.36;45.34
68701;DHT22;55682;51.114;5.882;2023-08-31T15:54:25;23.26;45.48
68701;DHT22;55682;51.114;5.882;2023-08-31T15:56:51;23.22;45.96